Time;durP1;ratioP1;P1;durP2;ratioP2;P2;SDS_P1;SDS_P2;PMS_P1;PMS_P2;Temp;Humidity;BMP_temperature;BMP_pressure;BME280_temperature;BME280_humidity;BME280_pressure;Samples;Min_cycle;Max_cycle;Signal;HPM_P1;HPM_P2
2023/06/22 00:00:19;;;;;;;13.80;7.15;;;;;;;-142.75;100.00;76487.63;5046971;28;20025;-62
2023/06/22 00:02:44;;;;;;;12.07;7.68;;;;;;;-142.75;100.00;76491.56;5046567;28;20127;-62
2023/06/22 00:05:10;;;;;;;17.30;9.48;;;;;;;-142.75;100.00;76495.50;5046603;28;20605;-62
2023/06/22 00:07:35;;;;;;;20.08;10.43;;;;;;;-142.75;100.00;76483.69;5046832;28;20078;-62
2023/06/22 00:10:00;;;;;;;20.38;10.30;;;;;;;-142.75;100.00;76475.81;5046823;28;20033;-61
2023/06/22 00:12:25;;;;;;;20.42;10.98;;;;;;;-142.75;100.00;76471.88;5046784;28;20062;-62
2023/06/22 00:14:51;;;;;;;20.50;11.02;;;;;;;-142.75;100.00;76481.72;5047330;28;20074;-61
2023/06/22 00:17:16;;;;;;;23.27;10.23;;;;;;;-142.75;100.00;76471.88;5046447;28;20388;-62
2023/06/22 00:19:42;;;;;;;21.40;10.50;;;;;;;-142.75;100.00;76475.81;5064687;28;20028;-62
2023/06/22 00:22:08;;;;;;;15.00;9.02;;;;;;;-142.75;100.00;76481.72;5066085;28;20031;-63
2023/06/22 00:24:33;;;;;;;17.75;9.52;;;;;;;-142.75;100.00;76479.75;5066113;28;20025;-62
2023/06/22 00:26:58;;;;;;;17.40;10.20;;;;;;;-142.75;100.00;76487.63;5066537;28;20103;-62
2023/06/22 00:29:23;;;;;;;18.13;9.40;;;;;;;-142.75;100.00;76491.56;5066199;28;20163;-62
2023/06/22 00:31:49;;;;;;;15.23;8.40;;;;;;;-142.75;100.00;76495.50;5066170;28;20024;-62
2023/06/22 00:34:15;;;;;;;16.35;9.05;;;;;;;-142.75;100.00;76495.50;5065728;28;20033;-61
2023/06/22 00:36:41;;;;;;;15.80;9.23;;;;;;;-142.75;100.00;76501.41;5065969;28;20029;-61
2023/06/22 00:39:08;;;;;;;16.35;8.93;;;;;;;-142.75;100.00;76507.31;5065675;28;20031;-62
2023/06/22 00:41:34;;;;;;;17.83;10.00;;;;;;;-142.75;100.00;76511.25;5065567;28;20025;-62
2023/06/22 00:43:59;;;;;;;16.95;9.52;;;;;;;-142.75;100.00;76517.16;5066754;28;20173;-62
2023/06/22 00:46:25;;;;;;;18.58;10.18;;;;;;;-142.75;100.00;76511.25;5065544;28;20024;-62
2023/06/22 00:48:51;;;;;;;16.90;9.88;;;;;;;-142.75;100.00;76505.34;5065607;28;20031;-62
2023/06/22 00:51:17;;;;;;;25.88;10.23;;;;;;;-142.75;100.00;76503.38;5065676;28;20012;-62
2023/06/22 00:53:43;;;;;;;21.90;10.35;;;;;;;-142.75;100.00;76501.41;5065275;28;20439;-60
2023/06/22 00:56:08;;;;;;;17.60;9.75;;;;;;;-142.75;100.00;76499.44;5065786;28;20102;-61
2023/06/22 00:58:35;;;;;;;17.02;10.02;;;;;;;-142.75;100.00;76501.41;5055084;28;20025;-62
2023/06/22 01:01:02;;;;;;;16.77;9.70;;;;;;;-142.75;100.00;76511.25;5045785;28;20032;-61
2023/06/22 01:03:27;;;;;;;17.92;10.10;;;;;;;-142.75;100.00;76501.41;5045491;28;20496;-63
2023/06/22 01:06:08;;;;;;;21.80;11.27;;;;;;;-142.75;100.00;76489.59;5045682;28;20029;-62
2023/06/22 01:08:49;;;;;;;19.95;11.55;;;;;;;-142.75;100.00;76483.69;5045711;28;20025;-62
2023/06/22 01:11:25;;;;;;;20.02;11.15;;;;;;;-142.75;100.00;76477.78;5045576;28;20492;-62
2023/06/22 01:14:04;;;;;;;17.30;10.20;;;;;;;-142.75;100.00;76483.69;5045906;28;20489;-62
2023/06/22 01:16:31;;;;;;;16.58;9.55;;;;;;;-142.75;100.00;76487.63;5044386;28;20117;-62
2023/06/22 01:19:03;;;;;;;19.35;10.43;;;;;;;-142.75;100.00;76483.69;5045654;28;20071;-62
2023/06/22 01:21:31;;;;;;;22.85;11.20;;;;;;;-142.75;100.00;76491.56;5045587;28;20446;-63
2023/06/22 01:24:16;;;;;;;17.90;10.10;;;;;;;-142.75;100.00;76507.31;5045545;28;20041;-62
2023/06/22 01:26:44;;;;;;;16.92;10.07;;;;;;;-142.75;100.00;76511.25;5044917;28;20519;-62
2023/06/22 01:29:13;;;;;;;15.95;9.27;;;;;;;-142.75;100.00;76511.25;5045219;28;20032;-62
2023/06/22 01:31:41;;;;;;;19.33;9.95;;;;;;;-142.75;100.00;76513.22;5045234;28;20017;-61
2023/06/22 01:34:08;;;;;;;21.30;12.15;;;;;;;-142.75;100.00;76509.28;5045247;28;20029;-62
2023/06/22 01:36:35;;;;;;;19.58;12.02;;;;;;;-142.75;100.00;76507.31;5045026;28;20048;-63
2023/06/22 01:39:03;;;;;;;20.85;12.68;;;;;;;-142.75;100.00;76495.50;5045389;28;20035;-62
2023/06/22 01:41:31;;;;;;;22.52;12.10;;;;;;;-142.75;100.00;76493.53;5065022;28;20044;-63
2023/06/22 01:43:57;;;;;;;21.00;12.40;;;;;;;-142.75;100.00;76503.38;5066053;28;20411;-62
2023/06/22 01:46:23;;;;;;;22.02;12.10;;;;;;;-142.75;100.00;76515.19;5064997;28;20036;-62
2023/06/22 01:48:50;;;;;;;17.27;10.73;;;;;;;-142.75;100.00;76525.03;5065097;28;20085;-62
2023/06/22 01:51:16;;;;;;;16.85;10.65;;;;;;;-142.75;100.00;76530.91;5064952;28;20115;-62
2023/06/22 01:53:42;;;;;;;22.25;12.48;;;;;;;-142.75;100.00;76527.00;5064491;28;20281;-62
2023/06/22 01:56:08;;;;;;;18.27;11.05;;;;;;;-142.75;100.00;76527.00;5064911;28;20055;-62
2023/06/22 01:58:33;;;;;;;21.10;11.98;;;;;;;-142.75;100.00;76521.09;5065021;28;20410;-61
2023/06/22 02:01:13;;;;;;;21.58;11.77;;;;;;;-142.75;100.00;76517.16;5065118;28;20021;-62
2023/06/22 02:03:48;;;;;;;19.20;11.30;;;;;;;-142.75;100.00;76519.13;5045699;28;20119;-62
2023/06/22 02:06:21;;;;;;;19.35;11.30;;;;;;;-142.75;100.00;76519.13;5045035;28;20200;-61
2023/06/22 02:08:55;;;;;;;24.90;13.65;;;;;;;-142.75;100.00;76521.09;5047316;28;20031;-62
2023/06/22 02:11:22;;;;;;;24.50;13.45;;;;;;;-142.75;100.00;76519.13;5064916;28;20040;-62
2023/06/22 02:13:49;;;;;;;25.58;14.57;;;;;;;-142.75;100.00;76515.19;5065210;28;20692;-61
2023/06/22 02:16:16;;;;;;;24.95;14.35;;;;;;;-142.75;100.00;76515.19;5064776;28;20594;-63
2023/06/22 02:18:51;;;;;;;27.23;14.88;;;;;;;-142.75;100.00;76503.38;5064483;28;20040;-62
2023/06/22 02:21:20;;;;;;;24.40;13.48;;;;;;;-142.75;100.00;76515.19;5055914;28;20036;-62
2023/06/22 02:23:46;;;;;;;23.88;14.02;;;;;;;-142.75;100.00;76525.03;5054222;28;20021;-62
2023/06/22 02:26:12;;;;;;;22.33;10.13;;;;;;;-142.75;100.00;76528.97;5064495;28;20039;-63
2023/06/22 02:28:38;;;;;;;16.58;9.65;;;;;;;-142.75;100.00;76538.78;5064670;28;20036;-62
2023/06/22 02:31:03;;;;;;;20.75;11.90;;;;;;;-142.75;100.00;76542.72;5064559;28;20652;-62
2023/06/22 02:33:28;;;;;;;21.92;12.57;;;;;;;-142.75;100.00;76546.66;5064384;28;20024;-62
2023/06/22 02:35:54;;;;;;;24.77;12.48;;;;;;;-142.75;100.00;76546.66;5064712;28;20563;-62
2023/06/22 02:38:19;;;;;;;19.85;11.60;;;;;;;-142.75;100.00;76556.50;5064588;28;20250;-62
2023/06/22 02:40:45;;;;;;;14.68;9.70;;;;;;;-142.75;100.00;76560.44;5067206;28;20021;-62
2023/06/22 02:43:11;;;;;;;17.17;9.15;;;;;;;-142.75;100.00;76548.63;5055726;28;20052;-61
2023/06/22 02:45:36;;;;;;;20.40;11.18;;;;;;;-142.75;100.00;76544.69;5048438;28;20103;-62
2023/06/22 02:48:01;;;;;;;22.55;12.77;;;;;;;-142.75;100.00;76542.72;5048423;28;20086;-60
2023/06/22 02:50:27;;;;;;;27.48;14.88;;;;;;;-142.75;100.00;76534.84;5048468;28;20040;-62
2023/06/22 02:52:52;;;;;;;25.23;14.60;;;;;;;-142.75;100.00;76527.00;5047921;28;20108;-61
2023/06/22 02:55:18;;;;;;;25.77;15.38;;;;;;;-142.75;100.00;76523.06;5048132;28;20071;-62
2023/06/22 02:57:45;;;;;;;27.75;15.73;;;;;;;-142.75;100.00;76521.09;5048252;28;20086;-60
2023/06/22 03:00:17;;;;;;;33.20;16.50;;;;;;;-142.75;100.00;76521.09;5047730;28;20021;-62
2023/06/22 03:02:47;;;;;;;26.13;15.15;;;;;;;-142.75;100.00;76503.38;5047717;28;20037;-63
2023/06/22 03:05:14;;;;;;;31.15;16.40;;;;;;;-142.75;100.00;76513.22;5067830;28;20081;-62
2023/06/22 03:07:40;;;;;;;29.20;17.38;;;;;;;-142.75;100.00;76519.13;5067681;28;20513;-61
2023/06/22 03:10:07;;;;;;;27.50;16.77;;;;;;;-142.75;100.00;76515.19;5067847;28;20024;-62
2023/06/22 03:12:32;;;;;;;30.27;17.08;;;;;;;-142.75;100.00;76517.16;5067544;28;20405;-62
2023/06/22 03:14:58;;;;;;;18.05;10.35;;;;;;;-142.75;100.00;76507.31;5068286;28;20070;-62
2023/06/22 03:17:23;;;;;;;19.13;10.18;;;;;;;-142.75;100.00;76511.25;5067080;28;20033;-63
2023/06/22 03:19:48;;;;;;;15.75;9.63;;;;;;;-142.75;100.00;76511.25;5047735;28;20048;-60
2023/06/22 03:22:14;;;;;;;21.38;11.68;;;;;;;-142.75;100.00;76513.22;5047591;28;20115;-62
2023/06/22 03:24:40;;;;;;;21.02;11.93;;;;;;;-142.75;100.00;76525.03;5047568;28;20024;-62
2023/06/22 03:27:05;;;;;;;23.08;12.88;;;;;;;-142.75;100.00;76530.91;5047648;28;20021;-60
2023/06/22 03:29:31;;;;;;;19.00;11.25;;;;;;;-142.75;100.00;76550.59;5047393;28;20044;-59
2023/06/22 03:31:56;;;;;;;19.27;11.73;;;;;;;-142.75;100.00;76552.56;5047432;28;20024;-62
2023/06/22 03:34:22;;;;;;;18.77;11.75;;;;;;;-142.75;100.00;76552.56;5047370;28;20029;-63
2023/06/22 03:36:47;;;;;;;20.65;12.18;;;;;;;-142.75;100.00;76558.47;5056594;28;20078;-62
2023/06/22 03:39:12;;;;;;;21.52;11.80;;;;;;;-142.75;100.00;76558.47;5067052;28;20127;-62
2023/06/22 03:41:38;;;;;;;18.10;10.75;;;;;;;-142.75;100.00;76556.50;5066942;28;20143;-62
2023/06/22 03:44:04;;;;;;;19.88;11.57;;;;;;;-142.75;100.00;76552.56;5067832;28;20024;-63
2023/06/22 03:46:29;;;;;;;24.45;12.40;;;;;;;-142.75;100.00;76552.56;5067229;28;20013;-62
2023/06/22 03:48:55;;;;;;;25.08;14.15;;;;;;;-142.75;100.00;76536.84;5067030;28;20515;-62
2023/06/22 03:51:20;;;;;;;24.40;13.65;;;;;;;-142.75;100.00;76532.88;5066368;28;20497;-62
2023/06/22 03:53:45;;;;;;;23.70;13.45;;;;;;;-142.75;100.00;76525.03;5066649;28;20376;-62
2023/06/22 03:56:11;;;;;;;22.90;10.75;;;;;;;-142.75;100.00;76536.84;5066892;28;20046;-60
2023/06/22 03:58:42;;;;;;;14.95;8.65;;;;;;;-142.75;100.00;76530.91;5066823;28;20450;-62
2023/06/22 04:01:11;;;;;;;20.15;11.43;;;;;;;-142.75;100.00;76534.84;5066799;28;20055;-62
2023/06/22 04:03:36;;;;;;;24.27;13.20;;;;;;;-142.75;100.00;76523.06;5066614;28;20025;-62
2023/06/22 04:06:02;;;;;;;20.42;11.25;;;;;;;-142.75;100.00;76517.16;5066713;28;20020;-62
2023/06/22 04:08:27;;;;;;;18.92;11.00;;;;;;;-142.75;100.00;76521.09;5066828;28;20028;-62
2023/06/22 04:10:53;;;;;;;15.98;9.00;;;;;;;-142.75;100.00;76527.00;5066507;28;20029;-63
2023/06/22 04:13:18;;;;;;;17.25;9.90;;;;;;;-142.75;100.00;76525.03;5066591;28;20681;-62
2023/06/22 04:15:44;;;;;;;15.75;10.57;;;;;;;-142.75;100.00;76519.13;5067615;28;20031;-62
2023/06/22 04:18:09;;;;;;;16.98;10.10;;;;;;;-142.75;100.00;76509.28;5066751;28;20028;-62
2023/06/22 04:20:34;;;;;;;17.90;10.00;;;;;;;-142.75;100.00;76507.31;5066231;28;20024;-62
2023/06/22 04:23:00;;;;;;;22.35;11.90;;;;;;;-142.75;100.00;76509.28;5066276;28;20082;-63
2023/06/22 04:25:25;;;;;;;23.67;12.80;;;;;;;-142.75;100.00;76499.44;5066301;28;20031;-62
2023/06/22 04:27:51;;;;;;;18.92;12.05;;;;;;;-142.75;100.00;76483.69;5065992;28;20058;-63
2023/06/22 04:30:16;;;;;;;19.90;11.82;;;;;;;-142.75;100.00;76471.88;5066291;28;20506;-62
2023/06/22 04:32:43;;;;;;;18.98;11.05;;;;;;;-142.75;100.00;76456.13;5049848;28;20543;-62
2023/06/22 04:35:08;;;;;;;20.70;11.50;;;;;;;-142.75;100.00;76444.31;5046250;28;20427;-62
2023/06/22 04:37:34;;;;;;;21.73;13.13;;;;;;;-142.75;100.00;76432.50;5046061;28;20028;-62
2023/06/22 04:39:59;;;;;;;23.13;14.07;;;;;;;-142.75;100.00;76412.81;5046156;28;20028;-63
2023/06/22 04:42:27;;;;;;;25.63;14.23;;;;;;;-142.75;100.00;76393.13;5045788;28;20029;-62
2023/06/22 04:44:52;;;;;;;26.27;15.90;;;;;;;-142.75;100.00;76389.19;5046695;28;20052;-62
2023/06/22 04:47:18;;;;;;;22.52;13.80;;;;;;;-142.75;100.00;76377.38;5046017;28;20565;-62
2023/06/22 04:49:43;;;;;;;26.08;14.77;;;;;;;-142.75;100.00;76369.50;5045852;28;20403;-62
2023/06/22 04:52:11;;;;;;;27.65;15.82;;;;;;;-142.75;100.00;76345.91;5046031;28;20032;-63
2023/06/22 04:54:38;;;;;;;25.60;15.10;;;;;;;-142.75;100.00;76334.09;5045724;28;20024;-62
2023/06/22 04:57:09;;;;;;;24.90;14.88;;;;;;;-142.75;100.00;76328.19;5045961;28;20037;-62
2023/06/22 04:59:35;;;;;;;25.00;14.68;;;;;;;-142.75;100.00;76324.25;5045883;28;20048;-62
2023/06/22 05:02:02;;;;;;;25.15;14.30;;;;;;;-142.75;100.00;76308.50;5044786;28;20116;-63
2023/06/22 05:04:31;;;;;;;28.27;14.10;;;;;;;-142.75;100.00;76312.44;5045878;28;20107;-62
2023/06/22 05:06:57;;;;;;;26.20;14.63;;;;;;;-142.75;100.00;76302.59;5045786;28;20029;-62
2023/06/22 05:09:23;;;;;;;28.02;14.57;;;;;;;-142.75;100.00;76302.59;5045574;28;20111;-62
2023/06/22 05:11:48;;;;;;;25.40;14.10;;;;;;;-142.75;100.00;76298.66;5045205;28;20044;-62
2023/06/22 05:14:14;;;;;;;25.98;14.60;;;;;;;-142.75;100.00;76282.91;5046082;28;20492;-63
2023/06/22 05:16:41;;;;;;;25.95;15.98;;;;;;;-142.75;100.00;76267.16;5045630;28;20025;-62
2023/06/22 05:19:06;;;;;;;30.10;16.88;;;;;;;-142.75;100.00;76263.22;5045458;28;20555;-62
2023/06/22 05:21:32;;;;;;;29.23;15.75;;;;;;;-142.75;100.00;76243.53;5045314;28;20134;-63
2023/06/22 05:24:00;;;;;;;28.05;16.02;;;;;;;-142.75;100.00;76223.84;5045305;28;20500;-61
2023/06/22 05:26:26;;;;;;;32.35;17.95;;;;;;;-142.75;100.00;76208.09;5045554;28;20032;-63
2023/06/22 05:28:52;;;;;;;29.25;16.58;;;;;;;-142.75;100.00;76198.28;5045194;28;20028;-63
2023/06/22 05:31:19;;;;;;;26.85;15.32;;;;;;;-142.75;100.00;76198.28;5045318;28;20032;-62
2023/06/22 05:33:45;;;;;;;40.55;16.23;;;;;;;-142.75;100.00;76184.50;5060069;28;20031;-62
2023/06/22 05:36:12;;;;;;;27.33;15.45;;;;;;;-142.75;100.00;76194.34;5064847;28;20031;-63
2023/06/22 05:38:38;;;;;;;23.50;14.38;;;;;;;-142.75;100.00;76188.44;5045120;28;20518;-62
2023/06/22 05:41:04;;;;;;;26.42;13.50;;;;;;;-142.75;100.00;76180.56;5045104;28;20108;-63
2023/06/22 05:43:29;;;;;;;20.90;14.10;;;;;;;-142.75;100.00;76174.66;5045486;28;20059;-63
2023/06/22 05:45:55;;;;;;;20.65;13.73;;;;;;;-142.75;100.00;76170.72;5045733;28;20024;-63
2023/06/22 05:48:20;;;;;;;22.13;12.70;;;;;;;-142.75;100.00;76190.41;5045036;28;20032;-63
2023/06/22 05:50:45;;;;;;;18.80;12.00;;;;;;;-142.75;100.00;76192.38;5045067;28;20032;-63
2023/06/22 05:53:11;;;;;;;16.70;11.07;;;;;;;-142.75;100.00;76192.38;5044954;28;20119;-63
2023/06/22 05:55:36;;;;;;;21.38;11.63;;;;;;;-142.75;100.00;76178.59;5045085;28;20496;-63
2023/06/22 05:58:03;;;;;;;18.70;11.35;;;;;;;-142.75;100.00;76168.75;5045412;28;20060;-64
2023/06/22 06:00:28;;;;;;;17.55;10.55;;;;;;;-142.75;100.00;76166.78;5046484;28;20037;-64
2023/06/22 06:02:54;;;;;;;18.17;10.23;;;;;;;-142.75;100.00;76164.81;5064647;28;20501;-63
2023/06/22 06:05:19;;;;;;;15.50;9.85;;;;;;;-142.75;100.00;76154.97;5064926;28;20081;-63
2023/06/22 06:07:45;;;;;;;16.42;10.23;;;;;;;-142.75;100.00;76145.13;5064537;28;20020;-62
2023/06/22 06:10:11;;;;;;;16.40;9.68;;;;;;;-142.75;100.00;76168.75;5057839;28;20033;-60
2023/06/22 06:12:36;;;;;;;15.60;9.75;;;;;;;-142.75;100.00;76168.75;5043003;28;20025;-61
2023/06/22 06:15:03;;;;;;;17.95;10.10;;;;;;;-142.75;100.00;76164.81;5045812;28;20028;-60
2023/06/22 06:17:28;;;;;;;17.65;10.00;;;;;;;-142.75;100.00;76162.84;5048511;28;20042;-61
2023/06/22 06:19:53;;;;;;;15.13;9.38;;;;;;;-142.75;100.00;76166.78;5048097;28;20024;-59
2023/06/22 06:22:20;;;;;;;15.77;9.70;;;;;;;-142.75;100.00;76184.50;5047823;28;20098;-62
2023/06/22 06:24:47;;;;;;;14.55;9.43;;;;;;;-142.75;100.00;76172.69;5049982;28;20116;-62
2023/06/22 06:27:13;;;;;;;14.02;8.73;;;;;;;-142.75;100.00;76154.97;5047625;28;20112;-61
2023/06/22 06:29:38;;;;;;;15.73;9.75;;;;;;;-142.75;100.00;76137.25;5043711;28;20112;-61
2023/06/22 06:32:04;;;;;;;16.30;9.10;;;;;;;-142.75;100.00;76117.56;5048058;28;20024;-60
2023/06/22 06:34:29;;;;;;;17.55;9.43;;;;;;;-142.75;100.00;76097.88;5046692;28;20064;-62
2023/06/22 06:36:54;;;;;;;14.23;9.82;;;;;;;-142.75;100.00;76093.94;5048260;28;20025;-62
2023/06/22 06:39:20;;;;;;;14.88;9.95;;;;;;;-142.75;100.00;76121.50;5044285;28;20500;-62
2023/06/22 06:41:45;;;;;;;20.30;9.57;;;;;;;-142.75;100.00;76107.72;5045909;28;20561;-61
2023/06/22 06:44:11;;;;;;;13.25;9.23;;;;;;;-142.75;100.00;76090.00;5044035;28;20158;-62
2023/06/22 06:46:37;;;;;;;16.08;9.68;;;;;;;-142.75;100.00;76109.69;5048071;28;20108;-61
2023/06/22 06:49:03;;;;;;;14.40;8.45;;;;;;;-142.75;100.00;76103.78;5045551;28;20028;-62
2023/06/22 06:51:28;;;;;;;13.13;8.48;;;;;;;-142.75;100.00;76090.00;5044358;28;20025;-62
2023/06/22 06:53:54;;;;;;;12.52;8.30;;;;;;;-142.75;100.00;76082.13;5045191;28;20090;-62
2023/06/22 06:56:19;;;;;;;12.35;8.23;;;;;;;-142.75;100.00;76090.00;5047351;28;20500;-63
2023/06/22 06:58:45;;;;;;;14.45;8.30;;;;;;;-142.75;100.00;76064.44;5047593;28;20763;-62
2023/06/22 07:01:12;;;;;;;12.40;8.50;;;;;;;-142.75;100.00;76050.66;5047953;28;20025;-62
2023/06/22 07:03:37;;;;;;;11.70;6.93;;;;;;;-142.75;100.00;76038.84;5047533;28;20527;-63
2023/06/22 07:06:03;;;;;;;12.73;7.72;;;;;;;-142.75;100.00;76036.88;5048050;28;20025;-62
2023/06/22 07:08:28;;;;;;;13.82;7.00;;;;;;;-142.75;100.00;76029.00;5066642;28;20016;-61
2023/06/22 07:10:54;;;;;;;14.23;7.10;;;;;;;-142.75;100.00;76017.19;5060473;28;20025;-62
2023/06/22 07:13:19;;;;;;;14.10;6.70;;;;;;;-142.75;100.00;75995.53;5047334;28;20032;-60
2023/06/22 07:15:44;;;;;;;10.63;6.25;;;;;;;-142.75;100.00;75975.84;5047411;28;20103;-64
2023/06/22 07:18:10;;;;;;;10.55;6.57;;;;;;;-142.75;100.00;75948.31;5047418;28;20082;-63
2023/06/22 07:20:35;;;;;;;9.88;6.13;;;;;;;-142.75;100.00;75940.44;5047285;28;20064;-63
2023/06/22 07:23:01;;;;;;;12.32;5.82;;;;;;;-142.75;100.00;75924.69;5047030;28;20017;-62
2023/06/22 07:25:26;;;;;;;11.13;6.03;;;;;;;-142.75;100.00;75918.78;5046411;28;20025;-62
2023/06/22 07:28:05;;;;;;;12.18;6.00;;;;;;;-142.75;100.00;75895.16;5046901;28;20021;-62
2023/06/22 07:30:32;;;;;;;8.85;5.25;;;;;;;-142.75;100.00;75901.06;5046854;28;20063;-63
2023/06/22 07:33:03;;;;;;;7.28;4.60;;;;;;;-142.75;100.00;75916.81;5046419;28;20499;-64
2023/06/22 07:35:29;;;;;;;6.18;3.70;;;;;;;-142.75;100.00;75908.94;5049829;28;20033;-64
2023/06/22 07:37:54;;;;;;;6.53;4.15;;;;;;;-142.75;100.00;75906.97;5043993;28;20065;-64
2023/06/22 07:40:20;;;;;;;6.15;3.78;;;;;;;-142.75;100.00;75881.38;5046420;28;20056;-64
2023/06/22 07:42:47;;;;;;;8.80;4.68;;;;;;;-142.75;100.00;75873.50;5045185;28;20028;-62
2023/06/22 07:45:13;;;;;;;9.05;4.95;;;;;;;-142.75;100.00;75873.50;5047283;28;20361;-63
2023/06/22 07:47:38;;;;;;;6.03;3.35;;;;;;;-142.75;100.00;75906.97;5046418;28;20102;-61
2023/06/22 07:50:04;;;;;;;6.43;2.75;;;;;;;-142.75;100.00;75895.16;5046608;28;20090;-59
2023/06/22 07:52:30;;;;;;;3.00;1.80;;;;;;;-142.75;100.00;75916.81;5045294;28;20021;-60
2023/06/22 07:54:56;;;;;;;2.67;1.30;;;;;;;-142.75;100.00;75887.28;5046458;28;20096;-59
2023/06/22 07:57:21;;;;;;;2.38;1.40;;;;;;;-142.75;100.00;75905.00;5046793;28;20028;-60
2023/06/22 07:59:47;;;;;;;3.42;1.58;;;;;;;-142.75;100.00;75873.50;5046459;28;20486;-60
2023/06/22 08:02:12;;;;;;;5.70;1.80;;;;;;;-142.75;100.00;75842.03;5066136;28;20024;-58
2023/06/22 08:04:38;;;;;;;4.03;2.20;;;;;;;-142.75;100.00;75826.28;5065946;28;20027;-59
2023/06/22 08:07:04;;;;;;;5.80;3.00;;;;;;;-142.75;100.00;75830.22;5058516;28;20025;-60
2023/06/22 08:09:31;;;;;;;4.95;2.85;;;;;;;-142.75;100.00;75798.72;5046510;28;20082;-58
2023/06/22 08:11:57;;;;;;;6.00;3.40;;;;;;;-142.75;100.00;75782.97;5046068;28;20446;-60
2023/06/22 08:14:25;;;;;;;9.85;4.60;;;;;;;-142.75;100.00;75761.34;5046782;28;20032;-62
2023/06/22 08:16:50;;;;;;;7.78;4.57;;;;;;;-142.75;100.00;75743.63;5046121;28;20029;-60
2023/06/22 08:19:16;;;;;;;8.52;5.68;;;;;;;-142.75;100.00;75761.34;5062818;28;20137;-60
2023/06/22 08:21:42;;;;;;;9.48;6.57;;;;;;;-142.75;100.00;75747.56;5065442;28;20068;-57
2023/06/22 08:24:08;;;;;;;11.88;7.43;;;;;;;-142.75;100.00;75720.00;5065224;28;20581;-60
2023/06/22 08:26:36;;;;;;;11.65;7.00;;;;;;;-142.75;100.00;75696.38;5065563;28;20104;-58
2023/06/22 08:29:02;;;;;;;10.20;7.18;;;;;;;-142.75;100.00;75672.78;5065768;28;20028;-61
2023/06/22 08:31:28;;;;;;;15.70;9.02;;;;;;;-142.75;100.00;75664.91;5065807;28;20496;-60
2023/06/22 08:33:53;;;;;;;11.57;8.25;;;;;;;-142.75;100.00;75633.41;5065191;28;20112;-59
2023/06/22 08:36:18;;;;;;;13.57;8.75;;;;;;;-142.75;100.00;75631.44;5065904;28;20441;-60
2023/06/22 08:38:44;;;;;;;13.15;8.73;;;;;;;-142.75;100.00;75629.47;5065435;28;20025;-60
2023/06/22 08:41:10;;;;;;;15.05;9.20;;;;;;;-142.75;100.00;75619.63;5065152;28;20565;-61
2023/06/22 08:43:35;;;;;;;12.75;8.68;;;;;;;-142.75;100.00;75611.75;5063748;28;20062;-60
2023/06/22 08:46:02;;;;;;;14.85;9.73;;;;;;;-142.75;100.00;75617.66;5066357;28;20028;-61
2023/06/22 08:48:28;;;;;;;17.70;9.90;;;;;;;-142.75;100.00;75647.19;5065732;28;20625;-60
2023/06/22 08:50:53;;;;;;;13.95;9.98;;;;;;;-142.75;100.00;75657.03;5065226;28;20038;-59
2023/06/22 08:53:18;;;;;;;16.40;10.40;;;;;;;-142.75;100.00;75676.69;5064785;28;20484;-61
2023/06/22 08:55:45;;;;;;;12.52;8.85;;;;;;;-142.75;100.00;75657.03;5065160;28;20028;-61
2023/06/22 08:58:10;;;;;;;14.57;9.52;;;;;;;-142.75;100.00;75659.00;5065150;28;20625;-61
2023/06/22 09:00:36;;;;;;;14.13;10.15;;;;;;;-142.75;100.00;75662.94;5065049;28;20039;-61
2023/06/22 09:03:01;;;;;;;15.32;10.10;;;;;;;-142.75;100.00;75664.91;5064887;28;20032;-58
2023/06/22 09:05:27;;;;;;;14.07;9.30;;;;;;;-142.75;100.00;75660.97;5065087;28;20035;-60
2023/06/22 09:07:54;;;;;;;13.05;9.20;;;;;;;-142.75;100.00;75659.00;5064943;28;20024;-60
2023/06/22 09:10:20;;;;;;;18.23;11.40;;;;;;;-142.75;100.00;75657.03;5064954;28;20070;-61
2023/06/22 09:12:45;;;;;;;14.68;9.57;;;;;;;-142.75;100.00;75662.94;5064638;28;20051;-59
2023/06/22 09:15:11;;;;;;;13.88;9.18;;;;;;;-142.75;100.00;75653.09;5065164;28;20087;-59
2023/06/22 09:17:36;;;;;;;16.27;10.23;;;;;;;-142.75;100.00;75645.22;5064797;28;20027;-61
2023/06/22 09:20:05;;;;;;;19.70;10.40;;;;;;;-142.75;100.00;75641.28;5065067;28;20095;-62
2023/06/22 09:22:31;;;;;;;18.17;11.38;;;;;;;-142.75;100.00;75635.38;5064738;28;20316;-61
2023/06/22 09:24:56;;;;;;;17.48;11.80;;;;;;;-142.75;100.00;75664.91;5064662;28;20024;-58
2023/06/22 09:27:22;;;;;;;16.33;10.38;;;;;;;-142.75;100.00;75631.44;5065196;28;20024;-57
2023/06/22 09:29:47;;;;;;;17.70;10.82;;;;;;;-142.75;100.00;75637.34;5064988;28;20025;-61
2023/06/22 09:32:13;;;;;;;16.45;10.30;;;;;;;-142.75;100.00;75629.47;5065547;28;20122;-60
2023/06/22 09:34:38;;;;;;;15.32;9.63;;;;;;;-142.75;100.00;75641.28;5065663;28;20024;-62
2023/06/22 09:37:04;;;;;;;16.05;10.18;;;;;;;-142.75;100.00;75633.41;5064546;28;20071;-56
2023/06/22 09:39:29;;;;;;;12.15;9.32;;;;;;;-142.75;100.00;75625.53;5065832;28;20039;-59
2023/06/22 09:41:54;;;;;;;12.77;8.80;;;;;;;-142.75;100.00;75617.66;5066031;28;20025;-61
2023/06/22 09:44:20;;;;;;;17.15;8.10;;;;;;;-142.75;100.00;75657.03;5066284;28;20031;-61
2023/06/22 09:46:45;;;;;;;13.45;7.78;;;;;;;-142.75;100.00;75698.34;5066405;28;20143;-59
2023/06/22 09:49:10;;;;;;;13.85;8.82;;;;;;;-142.75;100.00;75700.31;5065927;28;20024;-58
2023/06/22 09:51:36;;;;;;;16.63;9.88;;;;;;;-142.75;100.00;75708.19;5065132;28;20078;-62
2023/06/22 09:54:01;;;;;;;14.95;9.40;;;;;;;-142.75;100.00;75731.81;5066566;28;20020;-60
2023/06/22 09:56:28;;;;;;;14.93;7.97;;;;;;;-142.75;100.00;75723.94;5066471;28;20040;-58
2023/06/22 09:58:53;;;;;;;13.00;8.13;;;;;;;-142.75;100.00;75704.25;5066083;28;20031;-61
2023/06/22 10:01:20;;;;;;;12.20;7.30;;;;;;;-142.75;100.00;75727.88;5066303;28;20040;-60
2023/06/22 10:03:45;;;;;;;10.60;7.40;;;;;;;-142.75;100.00;75737.72;5066002;28;20028;-59
2023/06/22 10:06:11;;;;;;;10.85;7.03;;;;;;;-142.75;100.00;75759.38;5066255;28;20055;-61
2023/06/22 10:08:36;;;;;;;11.98;7.05;;;;;;;-142.75;100.00;75745.59;5066155;28;20027;-61
2023/06/22 10:11:03;;;;;;;10.75;7.03;;;;;;;-142.75;100.00;75731.81;5066425;28;20396;-60
2023/06/22 10:13:28;;;;;;;9.75;6.90;;;;;;;-142.75;100.00;75731.81;5065912;28;20028;-60
2023/06/22 10:15:53;;;;;;;9.20;6.43;;;;;;;-142.75;100.00;75747.56;5066779;28;20036;-60
2023/06/22 10:18:19;;;;;;;10.45;6.55;;;;;;;-142.75;100.00;75735.75;5066241;28;20024;-61
2023/06/22 10:20:51;;;;;;;13.43;8.00;;;;;;;-142.75;100.00;75731.81;5066001;28;20028;-61
2023/06/22 10:23:16;;;;;;;12.73;7.47;;;;;;;-142.75;100.00;75727.88;5065824;28;20028;-61
2023/06/22 10:25:41;;;;;;;10.95;7.55;;;;;;;-142.75;100.00;75747.56;5066079;28;20024;-59
2023/06/22 10:28:07;;;;;;;10.75;6.50;;;;;;;-142.75;100.00;75735.75;5066108;28;20013;-61
2023/06/22 10:30:32;;;;;;;10.02;6.07;;;;;;;-142.75;100.00;75751.50;5065997;28;20036;-62
2023/06/22 10:32:58;;;;;;;9.43;6.45;;;;;;;-142.75;100.00;75767.22;5065934;28;20386;-61
2023/06/22 10:35:23;;;;;;;10.82;7.68;;;;;;;-142.75;100.00;75771.16;5066104;28;20036;-61
2023/06/22 10:37:49;;;;;;;11.40;6.53;;;;;;;-142.75;100.00;75759.38;5065705;28;20044;-60
2023/06/22 10:40:18;;;;;;;10.00;6.10;;;;;;;-142.75;100.00;75786.91;5065859;28;20029;-60
2023/06/22 10:42:44;;;;;;;9.60;6.45;;;;;;;-142.75;100.00;75796.75;5065509;28;20024;-61
2023/06/22 10:45:10;;;;;;;8.73;6.25;;;;;;;-142.75;100.00;75796.75;5065608;28;20097;-61
2023/06/22 10:47:36;;;;;;;10.90;7.20;;;;;;;-142.75;100.00;75806.59;5065748;28;20059;-62
2023/06/22 10:50:01;;;;;;;9.15;6.53;;;;;;;-142.75;100.00;75798.72;5065824;28;20029;-60
2023/06/22 10:52:27;;;;;;;11.70;6.45;;;;;;;-142.75;100.00;75798.72;5065838;28;20092;-60
2023/06/22 10:54:52;;;;;;;9.98;5.93;;;;;;;-142.75;100.00;75782.97;5065681;28;20029;-59